sensor_id;sensor_type;location;lat;lon;timestamp;temperature;humidity
44559;DHT22;30270;40.238;18.256;2022-07-01T00:00:52;27.60;99.90
44559;DHT22;30270;40.238;18.256;2022-07-01T00:03:19;27.60;99.90
44559;DHT22;30270;40.238;18.256;2022-07-01T00:05:47;27.50;99.90
44559;DHT22;30270;40.238;18.256;2022-07-01T00:08:14;27.50;99.90
44559;DHT22;30270;40.238;18.256;2022-07-01T00:10:42;27.50;99.90
44559;DHT22;30270;40.238;18.256;2022-07-01T00:13:09;27.40;99.90
44559;DHT22;30270;40.238;18.256;2022-07-01T00:15:36;27.50;99.90
44559;DHT22;30270;40.238;18.256;2022-07-01T00:18:04;27.40;99.90
44559;DHT22;30270;40.238;18.256;2022-07-01T00:20:31;27.30;99.90
44559;DHT22;30270;40.238;18.256;2022-07-01T00:22:59;27.30;99.90
44559;DHT22;30270;40.238;18.256;2022-07-01T00:25:28;27.30;99.90
44559;DHT22;30270;40.238;18.256;2022-07-01T00:27:55;27.30;99.90
44559;DHT22;30270;40.238;18.256;2022-07-01T00:30:22;27.20;99.90
44559;DHT22;30270;40.238;18.256;2022-07-01T00:32:50;27.10;99.90
44559;DHT22;30270;40.238;18.256;2022-07-01T00:35:20;27.10;99.90
44559;DHT22;30270;40.238;18.256;2022-07-01T00:37:47;27.00;99.90
44559;DHT22;30270;40.238;18.256;2022-07-01T00:40:15;26.90;99.90
44559;DHT22;30270;40.238;18.256;2022-07-01T00:42:42;26.80;99.90
44559;DHT22;30270;40.238;18.256;2022-07-01T00:45:11;26.70;99.90
44559;DHT22;30270;40.238;18.256;2022-07-01T00:47:39;26.80;99.90
44559;DHT22;30270;40.238;18.256;2022-07-01T00:50:07;26.60;99.90
44559;DHT22;30270;40.238;18.256;2022-07-01T00:52:35;26.70;99.90
44559;DHT22;30270;40.238;18.256;2022-07-01T00:55:03;26.60;99.90
44559;DHT22;30270;40.238;18.256;2022-07-01T00:57:31;26.70;99.90
44559;DHT22;30270;40.238;18.256;2022-07-01T01:00:00;26.70;99.90
44559;DHT22;30270;40.238;18.256;2022-07-01T01:02:28;26.70;99.90
44559;DHT22;30270;40.238;18.256;2022-07-01T01:04:55;26.70;99.90
44559;DHT22;30270;40.238;18.256;2022-07-01T01:07:23;26.80;99.90
44559;DHT22;30270;40.238;18.256;2022-07-01T01:09:50;26.80;99.90
44559;DHT22;30270;40.238;18.256;2022-07-01T01:12:18;26.80;99.90
44559;DHT22;30270;40.238;18.256;2022-07-01T01:17:13;26.80;99.90
44559;DHT22;30270;40.238;18.256;2022-07-01T01:19:41;26.80;99.90
44559;DHT22;30270;40.238;18.256;2022-07-01T01:22:09;26.80;99.90
44559;DHT22;30270;40.238;18.256;2022-07-01T01:24:38;26.80;99.90
44559;DHT22;30270;40.238;18.256;2022-07-01T01:27:06;26.90;99.90
44559;DHT22;30270;40.238;18.256;2022-07-01T01:29:35;26.80;99.90
44559;DHT22;30270;40.238;18.256;2022-07-01T01:32:02;26.90;99.90
44559;DHT22;30270;40.238;18.256;2022-07-01T01:34:31;26.90;99.90
44559;DHT22;30270;40.238;18.256;2022-07-01T01:36:58;26.90;99.90
44559;DHT22;30270;40.238;18.256;2022-07-01T01:39:25;27.00;99.90
44559;DHT22;30270;40.238;18.256;2022-07-01T01:41:52;27.10;99.90
44559;DHT22;30270;40.238;18.256;2022-07-01T01:44:20;27.10;99.90
44559;DHT22;30270;40.238;18.256;2022-07-01T01:46:47;27.10;99.90
44559;DHT22;30270;40.238;18.256;2022-07-01T01:49:15;27.10;99.90
44559;DHT22;30270;40.238;18.256;2022-07-01T01:51:42;27.00;99.90
44559;DHT22;30270;40.238;18.256;2022-07-01T01:54:09;27.00;99.90
44559;DHT22;30270;40.238;18.256;2022-07-01T01:56:37;27.00;99.90
44559;DHT22;30270;40.238;18.256;2022-07-01T01:59:04;26.80;99.90
44559;DHT22;30270;40.238;18.256;2022-07-01T02:01:32;26.90;99.90
44559;DHT22;30270;40.238;18.256;2022-07-01T02:03:59;26.80;99.90
44559;DHT22;30270;40.238;18.256;2022-07-01T02:06:27;26.80;99.90
44559;DHT22;30270;40.238;18.256;2022-07-01T02:08:54;26.80;99.90
44559;DHT22;30270;40.238;18.256;2022-07-01T02:11:21;26.80;99.90
44559;DHT22;30270;40.238;18.256;2022-07-01T02:13:49;26.80;99.90
44559;DHT22;30270;40.238;18.256;2022-07-01T02:16:16;26.80;99.90
44559;DHT22;30270;40.238;18.256;2022-07-01T02:18:43;26.70;99.90
44559;DHT22;30270;40.238;18.256;2022-07-01T02:21:11;26.70;99.90
44559;DHT22;30270;40.238;18.256;2022-07-01T02:23:38;26.70;99.90
44559;DHT22;30270;40.238;18.256;2022-07-01T02:26:05;26.70;99.90
44559;DHT22;30270;40.238;18.256;2022-07-01T02:28:33;26.70;99.90
44559;DHT22;30270;40.238;18.256;2022-07-01T02:31:00;26.70;99.90
44559;DHT22;30270;40.238;18.256;2022-07-01T02:33:29;26.60;99.90
44559;DHT22;30270;40.238;18.256;2022-07-01T02:35:57;26.60;99.90
44559;DHT22;30270;40.238;18.256;2022-07-01T02:38:24;26.60;99.90
44559;DHT22;30270;40.238;18.256;2022-07-01T02:40:51;26.60;99.90
44559;DHT22;30270;40.238;18.256;2022-07-01T02:43:19;26.60;99.90
44559;DHT22;30270;40.238;18.256;2022-07-01T02:45:46;26.60;99.90
44559;DHT22;30270;40.238;18.256;2022-07-01T02:48:13;26.60;99.90
44559;DHT22;30270;40.238;18.256;2022-07-01T02:50:41;26.60;99.90
44559;DHT22;30270;40.238;18.256;2022-07-01T02:53:08;26.70;99.90
44559;DHT22;30270;40.238;18.256;2022-07-01T02:55:35;26.70;99.90
44559;DHT22;30270;40.238;18.256;2022-07-01T02:58:03;26.70;99.90
44559;DHT22;30270;40.238;18.256;2022-07-01T03:00:31;26.70;99.90
44559;DHT22;30270;40.238;18.256;2022-07-01T03:02:58;26.70;99.90
44559;DHT22;30270;40.238;18.256;2022-07-01T03:05:26;26.70;99.90
44559;DHT22;30270;40.238;18.256;2022-07-01T03:07:53;26.70;99.90
44559;DHT22;30270;40.238;18.256;2022-07-01T03:10:21;26.60;99.90
44559;DHT22;30270;40.238;18.256;2022-07-01T03:12:48;26.60;99.90
44559;DHT22;30270;40.238;18.256;2022-07-01T03:15:16;26.50;99.90
44559;DHT22;30270;40.238;18.256;2022-07-01T03:17:44;26.50;99.90
44559;DHT22;30270;40.238;18.256;2022-07-01T03:20:13;26.50;99.90
44559;DHT22;30270;40.238;18.256;2022-07-01T03:22:41;26.50;99.90
44559;DHT22;30270;40.238;18.256;2022-07-01T03:25:08;26.40;99.90
44559;DHT22;30270;40.238;18.256;2022-07-01T03:27:36;26.50;99.90
44559;DHT22;30270;40.238;18.256;2022-07-01T03:30:04;26.50;99.90
44559;DHT22;30270;40.238;18.256;2022-07-01T03:32:33;26.50;99.90
44559;DHT22;30270;40.238;18.256;2022-07-01T03:35:01;26.50;99.90
44559;DHT22;30270;40.238;18.256;2022-07-01T03:37:48;26.50;99.90
44559;DHT22;30270;40.238;18.256;2022-07-01T03:40:16;26.50;99.90
44559;DHT22;30270;40.238;18.256;2022-07-01T03:42:43;26.60;99.90
44559;DHT22;30270;40.238;18.256;2022-07-01T03:45:11;26.70;99.90
44559;DHT22;30270;40.238;18.256;2022-07-01T03:47:44;26.70;99.90
44559;DHT22;30270;40.238;18.256;2022-07-01T03:50:11;26.80;99.90
44559;DHT22;30270;40.238;18.256;2022-07-01T03:52:38;26.80;99.90
44559;DHT22;30270;40.238;18.256;2022-07-01T03:55:11;26.90;99.90
44559;DHT22;30270;40.238;18.256;2022-07-01T03:57:38;27.00;99.90
44559;DHT22;30270;40.238;18.256;2022-07-01T04:00:06;27.10;99.90
44559;DHT22;30270;40.238;18.256;2022-07-01T04:02:34;27.10;99.90
44559;DHT22;30270;40.238;18.256;2022-07-01T04:05:01;27.20;99.90
44559;DHT22;30270;40.238;18.256;2022-07-01T04:07:29;27.30;99.90
44559;DHT22;30270;40.238;18.256;2022-07-01T04:09:56;27.40;99.90
44559;DHT22;30270;40.238;18.256;2022-07-01T04:12:23;27.40;99.90
44559;DHT22;30270;40.238;18.256;2022-07-01T04:14:51;27.60;99.90
44559;DHT22;30270;40.238;18.256;2022-07-01T04:17:18;27.60;99.90
44559;DHT22;30270;40.238;18.256;2022-07-01T04:19:46;27.80;99.90
44559;DHT22;30270;40.238;18.256;2022-07-01T04:22:13;27.80;99.90
44559;DHT22;30270;40.238;18.256;2022-07-01T04:24:59;28.00;99.90
44559;DHT22;30270;40.238;18.256;2022-07-01T04:27:28;28.10;99.90
44559;DHT22;30270;40.238;18.256;2022-07-01T04:29:55;28.20;99.90
44559;DHT22;30270;40.238;18.256;2022-07-01T04:32:23;28.30;99.90
44559;DHT22;30270;40.238;18.256;2022-07-01T04:34:51;28.40;99.90
44559;DHT22;30270;40.238;18.256;2022-07-01T04:37:18;28.50;99.90
44559;DHT22;30270;40.238;18.256;2022-07-01T04:39:46;28.60;99.90
44559;DHT22;30270;40.238;18.256;2022-07-01T04:42:14;28.70;99.90
44559;DHT22;30270;40.238;18.256;2022-07-01T04:44:42;28.70;99.90
44559;DHT22;30270;40.238;18.256;2022-07-01T04:47:10;28.90;99.90
44559;DHT22;30270;40.238;18.256;2022-07-01T04:49:37;28.90;99.90
44559;DHT22;30270;40.238;18.256;2022-07-01T04:52:05;29.00;99.90
44559;DHT22;30270;40.238;18.256;2022-07-01T04:54:33;29.10;99.90
44559;DHT22;30270;40.238;18.256;2022-07-01T04:57:00;29.20;99.90
44559;DHT22;30270;40.238;18.256;2022-07-01T04:59:28;29.30;99.90
44559;DHT22;30270;40.238;18.256;2022-07-01T05:01:57;29.40;99.90
44559;DHT22;30270;40.238;18.256;2022-07-01T05:04:26;29.50;99.90
44559;DHT22;30270;40.238;18.256;2022-07-01T05:06:55;29.60;99.90
44559;DHT22;30270;40.238;18.256;2022-07-01T05:09:22;29.70;99.90
44559;DHT22;30270;40.238;18.256;2022-07-01T05:11:55;29.80;99.90
44559;DHT22;30270;40.238;18.256;2022-07-01T05:14:23;29.90;99.90
44559;DHT22;30270;40.238;18.256;2022-07-01T05:16:50;30.00;99.90
44559;DHT22;30270;40.238;18.256;2022-07-01T05:19:18;30.10;99.90
44559;DHT22;30270;40.238;18.256;2022-07-01T05:22:04;30.20;99.90
44559;DHT22;30270;40.238;18.256;2022-07-01T05:24:31;30.30;99.90
44559;DHT22;30270;40.238;18.256;2022-07-01T05:26:59;30.40;99.90
44559;DHT22;30270;40.238;18.256;2022-07-01T05:29:27;30.50;99.90
44559;DHT22;30270;40.238;18.256;2022-07-01T05:31:55;30.60;99.90
44559;DHT22;30270;40.238;18.256;2022-07-01T05:34:23;30.70;99.70
44559;DHT22;30270;40.238;18.256;2022-07-01T05:36:50;30.80;99.00
44559;DHT22;30270;40.238;18.256;2022-07-01T05:39:18;30.80;98.70
44559;DHT22;30270;40.238;18.256;2022-07-01T05:41:45;30.90;97.50
44559;DHT22;30270;40.238;18.256;2022-07-01T05:44:13;30.90;96.90
44559;DHT22;30270;40.238;18.256;2022-07-01T05:46:40;31.00;96.70
44559;DHT22;30270;40.238;18.256;2022-07-01T05:49:07;31.00;96.70
44559;DHT22;30270;40.238;18.256;2022-07-01T05:51:36;31.10;95.60
44559;DHT22;30270;40.238;18.256;2022-07-01T05:54:04;31.10;94.70
44559;DHT22;30270;40.238;18.256;2022-07-01T05:56:31;31.20;94.10
44559;DHT22;30270;40.238;18.256;2022-07-01T05:58:59;31.20;94.10
44559;DHT22;30270;40.238;18.256;2022-07-01T06:01:27;31.40;93.70
44559;DHT22;30270;40.238;18.256;2022-07-01T06:03:54;31.60;93.00
44559;DHT22;30270;40.238;18.256;2022-07-01T06:06:21;31.80;92.50
44559;DHT22;30270;40.238;18.256;2022-07-01T06:08:49;31.90;92.10
44559;DHT22;30270;40.238;18.256;2022-07-01T06:11:16;32.00;91.70
44559;DHT22;30270;40.238;18.256;2022-07-01T06:13:44;32.20;92.10
44559;DHT22;30270;40.238;18.256;2022-07-01T06:16:11;32.20;91.20
44559;DHT22;30270;40.238;18.256;2022-07-01T06:18:38;32.10;88.50
44559;DHT22;30270;40.238;18.256;2022-07-01T06:21:06;32.20;90.40
44559;DHT22;30270;40.238;18.256;2022-07-01T06:23:33;32.30;90.70
44559;DHT22;30270;40.238;18.256;2022-07-01T06:26:01;32.40;90.00
44559;DHT22;30270;40.238;18.256;2022-07-01T06:28:28;32.40;90.30
44559;DHT22;30270;40.238;18.256;2022-07-01T06:30:57;32.60;88.70
44559;DHT22;30270;40.238;18.256;2022-07-01T06:33:25;32.50;88.20
44559;DHT22;30270;40.238;18.256;2022-07-01T06:35:54;32.60;87.80
44559;DHT22;30270;40.238;18.256;2022-07-01T06:38:21;32.60;87.90
44559;DHT22;30270;40.238;18.256;2022-07-01T06:40:48;32.70;87.50
44559;DHT22;30270;40.238;18.256;2022-07-01T06:43:36;32.80;89.20
44559;DHT22;30270;40.238;18.256;2022-07-01T06:46:04;32.90;88.40
44559;DHT22;30270;40.238;18.256;2022-07-01T06:48:31;33.10;87.00
44559;DHT22;30270;40.238;18.256;2022-07-01T06:50:58;32.90;87.30
44559;DHT22;30270;40.238;18.256;2022-07-01T06:53:26;33.00;87.20
44559;DHT22;30270;40.238;18.256;2022-07-01T06:55:53;33.30;86.50
44559;DHT22;30270;40.238;18.256;2022-07-01T06:58:21;33.40;86.20
44559;DHT22;30270;40.238;18.256;2022-07-01T07:00:48;33.30;85.40
44559;DHT22;30270;40.238;18.256;2022-07-01T07:03:15;33.50;85.70
44559;DHT22;30270;40.238;18.256;2022-07-01T07:05:43;33.50;86.00
44559;DHT22;30270;40.238;18.256;2022-07-01T07:08:10;33.40;85.40
44559;DHT22;30270;40.238;18.256;2022-07-01T07:10:37;33.40;84.90
44559;DHT22;30270;40.238;18.256;2022-07-01T07:13:05;33.50;84.30
44559;DHT22;30270;40.238;18.256;2022-07-01T07:15:32;33.70;84.10
44559;DHT22;30270;40.238;18.256;2022-07-01T07:18:00;33.90;84.70
44559;DHT22;30270;40.238;18.256;2022-07-01T07:20:27;34.10;84.50
44559;DHT22;30270;40.238;18.256;2022-07-01T07:22:55;34.30;85.20
44559;DHT22;30270;40.238;18.256;2022-07-01T07:25:22;34.30;85.60
44559;DHT22;30270;40.238;18.256;2022-07-01T07:27:49;34.40;85.90
44559;DHT22;30270;40.238;18.256;2022-07-01T07:30:17;34.30;85.00
44559;DHT22;30270;40.238;18.256;2022-07-01T07:32:44;34.30;84.50
44559;DHT22;30270;40.238;18.256;2022-07-01T07:35:12;34.40;84.70
44559;DHT22;30270;40.238;18.256;2022-07-01T07:37:40;34.40;85.80
44559;DHT22;30270;40.238;18.256;2022-07-01T07:40:08;34.50;86.30
44559;DHT22;30270;40.238;18.256;2022-07-01T07:42:37;34.60;86.20
44559;DHT22;30270;40.238;18.256;2022-07-01T07:45:05;34.80;85.70
44559;DHT22;30270;40.238;18.256;2022-07-01T07:47:34;34.60;85.80
44559;DHT22;30270;40.238;18.256;2022-07-01T07:50:01;34.80;86.10
44559;DHT22;30270;40.238;18.256;2022-07-01T07:52:29;34.90;85.80
44559;DHT22;30270;40.238;18.256;2022-07-01T07:54:57;35.10;85.60
44559;DHT22;30270;40.238;18.256;2022-07-01T07:57:24;35.30;85.20
44559;DHT22;30270;40.238;18.256;2022-07-01T07:59:52;35.50;85.10
44559;DHT22;30270;40.238;18.256;2022-07-01T08:02:19;35.70;84.80
44559;DHT22;30270;40.238;18.256;2022-07-01T08:04:50;35.80;83.70
44559;DHT22;30270;40.238;18.256;2022-07-01T08:07:17;35.90;83.70
44559;DHT22;30270;40.238;18.256;2022-07-01T08:09:45;35.90;83.20
44559;DHT22;30270;40.238;18.256;2022-07-01T08:12:15;35.80;82.80
44559;DHT22;30270;40.238;18.256;2022-07-01T08:14:43;35.50;81.20
44559;DHT22;30270;40.238;18.256;2022-07-01T08:17:11;35.00;82.00
44559;DHT22;30270;40.238;18.256;2022-07-01T08:19:38;35.00;82.40
44559;DHT22;30270;40.238;18.256;2022-07-01T08:22:05;35.10;82.10
44559;DHT22;30270;40.238;18.256;2022-07-01T08:24:33;35.20;81.50
44559;DHT22;30270;40.238;18.256;2022-07-01T08:27:00;35.20;79.90
44559;DHT22;30270;40.238;18.256;2022-07-01T08:29:28;35.00;79.70
44559;DHT22;30270;40.238;18.256;2022-07-01T08:31:55;35.10;79.20
44559;DHT22;30270;40.238;18.256;2022-07-01T08:34:22;35.10;78.90
44559;DHT22;30270;40.238;18.256;2022-07-01T08:36:50;35.30;79.50
44559;DHT22;30270;40.238;18.256;2022-07-01T08:39:17;35.60;79.20
44559;DHT22;30270;40.238;18.256;2022-07-01T08:41:45;35.70;78.10
44559;DHT22;30270;40.238;18.256;2022-07-01T08:44:12;35.40;77.80
44559;DHT22;30270;40.238;18.256;2022-07-01T08:46:40;35.50;77.10
44559;DHT22;30270;40.238;18.256;2022-07-01T08:49:07;35.50;77.30
44559;DHT22;30270;40.238;18.256;2022-07-01T08:51:35;35.40;77.50
44559;DHT22;30270;40.238;18.256;2022-07-01T08:54:02;35.30;77.70
44559;DHT22;30270;40.238;18.256;2022-07-01T08:56:29;35.00;78.00
44559;DHT22;30270;40.238;18.256;2022-07-01T08:59:09;35.00;78.00
44559;DHT22;30270;40.238;18.256;2022-07-01T09:01:38;35.10;76.50
44559;DHT22;30270;40.238;18.256;2022-07-01T09:04:39;35.20;76.80
44559;DHT22;30270;40.238;18.256;2022-07-01T09:07:04;35.50;76.80
44559;DHT22;30270;40.238;18.256;2022-07-01T09:09:36;35.60;75.20
44559;DHT22;30270;40.238;18.256;2022-07-01T09:12:04;35.80;75.40
44559;DHT22;30270;40.238;18.256;2022-07-01T09:14:32;36.00;74.50
44559;DHT22;30270;40.238;18.256;2022-07-01T09:17:04;36.20;74.70
44559;DHT22;30270;40.238;18.256;2022-07-01T09:19:33;36.40;75.20
44559;DHT22;30270;40.238;18.256;2022-07-01T09:22:01;36.50;75.30
44559;DHT22;30270;40.238;18.256;2022-07-01T09:24:30;36.70;73.70
44559;DHT22;30270;40.238;18.256;2022-07-01T09:29:32;36.90;72.80
44559;DHT22;30270;40.238;18.256;2022-07-01T09:32:02;36.90;73.20
44559;DHT22;30270;40.238;18.256;2022-07-01T09:34:34;36.80;73.50
44559;DHT22;30270;40.238;18.256;2022-07-01T09:37:02;36.90;73.20
44559;DHT22;30270;40.238;18.256;2022-07-01T09:39:30;36.90;73.20
44559;DHT22;30270;40.238;18.256;2022-07-01T09:42:08;37.00;72.90
44559;DHT22;30270;40.238;18.256;2022-07-01T09:44:40;36.60;73.70
44559;DHT22;30270;40.238;18.256;2022-07-01T09:47:18;36.50;74.00
44559;DHT22;30270;40.238;18.256;2022-07-01T09:49:49;36.20;73.60
44559;DHT22;30270;40.238;18.256;2022-07-01T09:52:17;36.10;75.10
44559;DHT22;30270;40.238;18.256;2022-07-01T09:54:45;36.10;76.10
44559;DHT22;30270;40.238;18.256;2022-07-01T09:57:14;36.00;76.90
44559;DHT22;30270;40.238;18.256;2022-07-01T09:59:42;36.20;76.40
44559;DHT22;30270;40.238;18.256;2022-07-01T10:02:10;36.10;75.70
44559;DHT22;30270;40.238;18.256;2022-07-01T10:04:46;35.90;75.40
44559;DHT22;30270;40.238;18.256;2022-07-01T10:12:42;36.00;75.90
44559;DHT22;30270;40.238;18.256;2022-07-01T10:15:11;36.10;77.50
44559;DHT22;30270;40.238;18.256;2022-07-01T10:17:44;36.30;77.50
44559;DHT22;30270;40.238;18.256;2022-07-01T10:20:13;36.50;77.60
44559;DHT22;30270;40.238;18.256;2022-07-01T10:22:43;36.50;77.00
44559;DHT22;30270;40.238;18.256;2022-07-01T10:33:30;36.20;75.70
44559;DHT22;30270;40.238;18.256;2022-07-01T10:41:34;35.80;76.00
44559;DHT22;30270;40.238;18.256;2022-07-01T10:44:03;35.70;75.70
44559;DHT22;30270;40.238;18.256;2022-07-01T10:46:37;35.70;76.00
44559;DHT22;30270;40.238;18.256;2022-07-01T10:49:08;35.60;75.80
44559;DHT22;30270;40.238;18.256;2022-07-01T10:51:54;35.60;75.50
44559;DHT22;30270;40.238;18.256;2022-07-01T10:59:42;35.70;74.60
44559;DHT22;30270;40.238;18.256;2022-07-01T11:02:11;35.60;74.50
44559;DHT22;30270;40.238;18.256;2022-07-01T11:04:38;35.70;74.30
44559;DHT22;30270;40.238;18.256;2022-07-01T11:07:06;35.60;74.30
44559;DHT22;30270;40.238;18.256;2022-07-01T11:09:35;35.60;73.90
44559;DHT22;30270;40.238;18.256;2022-07-01T11:12:02;35.70;73.30
44559;DHT22;30270;40.238;18.256;2022-07-01T11:14:33;35.80;73.70
44559;DHT22;30270;40.238;18.256;2022-07-01T11:17:01;36.00;72.50
44559;DHT22;30270;40.238;18.256;2022-07-01T11:19:29;35.90;72.50
44559;DHT22;30270;40.238;18.256;2022-07-01T11:21:56;36.10;72.70
44559;DHT22;30270;40.238;18.256;2022-07-01T11:24:24;36.30;72.30
44559;DHT22;30270;40.238;18.256;2022-07-01T11:26:55;36.30;71.80
44559;DHT22;30270;40.238;18.256;2022-07-01T11:29:26;36.30;71.90
44559;DHT22;30270;40.238;18.256;2022-07-01T11:31:54;36.40;71.60
44559;DHT22;30270;40.238;18.256;2022-07-01T11:34:26;36.20;71.00
44559;DHT22;30270;40.238;18.256;2022-07-01T11:36:54;36.10;71.40
44559;DHT22;30270;40.238;18.256;2022-07-01T11:39:43;35.90;71.10
44559;DHT22;30270;40.238;18.256;2022-07-01T11:42:11;35.90;71.40
44559;DHT22;30270;40.238;18.256;2022-07-01T11:47:07;35.80;71.30
44559;DHT22;30270;40.238;18.256;2022-07-01T11:49:43;35.80;71.30
44559;DHT22;30270;40.238;18.256;2022-07-01T11:52:10;35.90;71.40
44559;DHT22;30270;40.238;18.256;2022-07-01T11:54:38;35.70;71.20
44559;DHT22;30270;40.238;18.256;2022-07-01T11:57:10;35.80;71.60
44559;DHT22;30270;40.238;18.256;2022-07-01T11:59:37;35.70;71.50
44559;DHT22;30270;40.238;18.256;2022-07-01T12:02:09;35.70;70.90
44559;DHT22;30270;40.238;18.256;2022-07-01T12:04:38;35.70;70.80
44559;DHT22;30270;40.238;18.256;2022-07-01T12:07:06;35.70;70.80
44559;DHT22;30270;40.238;18.256;2022-07-01T12:09:34;35.60;71.00
44559;DHT22;30270;40.238;18.256;2022-07-01T12:12:02;35.60;70.80
44559;DHT22;30270;40.238;18.256;2022-07-01T12:14:31;35.60;70.90
44559;DHT22;30270;40.238;18.256;2022-07-01T12:17:02;35.60;70.60
44559;DHT22;30270;40.238;18.256;2022-07-01T12:22:01;35.50;70.70
44559;DHT22;30270;40.238;18.256;2022-07-01T12:24:31;35.40;70.70
44559;DHT22;30270;40.238;18.256;2022-07-01T12:29:28;35.40;72.50
44559;DHT22;30270;40.238;18.256;2022-07-01T12:31:57;35.30;72.40
44559;DHT22;30270;40.238;18.256;2022-07-01T12:34:41;35.30;72.20
44559;DHT22;30270;40.238;18.256;2022-07-01T12:37:14;35.10;71.80
44559;DHT22;30270;40.238;18.256;2022-07-01T12:39:45;35.10;72.80
44559;DHT22;30270;40.238;18.256;2022-07-01T12:44:51;35.10;73.00
44559;DHT22;30270;40.238;18.256;2022-07-01T12:47:20;35.00;73.30
44559;DHT22;30270;40.238;18.256;2022-07-01T12:49:48;35.10;73.00
44559;DHT22;30270;40.238;18.256;2022-07-01T12:52:25;35.20;72.50
44559;DHT22;30270;40.238;18.256;2022-07-01T12:54:55;35.10;72.10
44559;DHT22;30270;40.238;18.256;2022-07-01T12:57:32;35.30;73.00
44559;DHT22;30270;40.238;18.256;2022-07-01T13:00:04;35.30;72.40
44559;DHT22;30270;40.238;18.256;2022-07-01T13:02:31;35.30;72.00
44559;DHT22;30270;40.238;18.256;2022-07-01T13:04:59;35.40;72.10
44559;DHT22;30270;40.238;18.256;2022-07-01T13:07:26;35.40;71.70
44559;DHT22;30270;40.238;18.256;2022-07-01T13:09:54;35.40;71.50
44559;DHT22;30270;40.238;18.256;2022-07-01T13:12:21;35.40;71.70
44559;DHT22;30270;40.238;18.256;2022-07-01T13:14:49;35.30;71.30
44559;DHT22;30270;40.238;18.256;2022-07-01T13:17:16;35.20;72.40
44559;DHT22;30270;40.238;18.256;2022-07-01T13:19:44;35.10;72.10
44559;DHT22;30270;40.238;18.256;2022-07-01T13:22:11;35.10;72.50
44559;DHT22;30270;40.238;18.256;2022-07-01T13:24:39;35.10;72.20
44559;DHT22;30270;40.238;18.256;2022-07-01T13:27:06;35.20;72.10
44559;DHT22;30270;40.238;18.256;2022-07-01T13:29:34;35.30;72.00
44559;DHT22;30270;40.238;18.256;2022-07-01T13:32:02;35.30;71.60
44559;DHT22;30270;40.238;18.256;2022-07-01T13:34:37;35.20;71.30
44559;DHT22;30270;40.238;18.256;2022-07-01T13:37:07;35.30;71.00
44559;DHT22;30270;40.238;18.256;2022-07-01T13:39:35;35.30;70.80
44559;DHT22;30270;40.238;18.256;2022-07-01T13:42:03;35.30;71.50
44559;DHT22;30270;40.238;18.256;2022-07-01T13:44:31;35.40;71.70
44559;DHT22;30270;40.238;18.256;2022-07-01T13:47:01;35.30;71.10
44559;DHT22;30270;40.238;18.256;2022-07-01T13:49:29;35.20;70.90
44559;DHT22;30270;40.238;18.256;2022-07-01T13:51:57;35.20;71.40
44559;DHT22;30270;40.238;18.256;2022-07-01T13:54:25;35.30;71.20
44559;DHT22;30270;40.238;18.256;2022-07-01T13:56:52;35.30;71.20
44559;DHT22;30270;40.238;18.256;2022-07-01T13:59:20;35.30;71.00
44559;DHT22;30270;40.238;18.256;2022-07-01T14:01:47;35.20;71.10
44559;DHT22;30270;40.238;18.256;2022-07-01T14:04:15;35.20;71.60
44559;DHT22;30270;40.238;18.256;2022-07-01T14:06:42;35.20;71.20
44559;DHT22;30270;40.238;18.256;2022-07-01T14:09:10;35.30;71.20
44559;DHT22;30270;40.238;18.256;2022-07-01T14:11:38;35.30;70.70
44559;DHT22;30270;40.238;18.256;2022-07-01T14:14:06;35.20;70.80
44559;DHT22;30270;40.238;18.256;2022-07-01T14:16:33;35.00;70.80
44559;DHT22;30270;40.238;18.256;2022-07-01T14:19:01;35.00;70.80
44559;DHT22;30270;40.238;18.256;2022-07-01T14:21:29;35.10;70.20
44559;DHT22;30270;40.238;18.256;2022-07-01T14:23:58;35.10;70.00
44559;DHT22;30270;40.238;18.256;2022-07-01T14:26:25;35.10;69.70
44559;DHT22;30270;40.238;18.256;2022-07-01T14:28:53;35.10;69.30
44559;DHT22;30270;40.238;18.256;2022-07-01T14:31:20;35.00;68.70
44559;DHT22;30270;40.238;18.256;2022-07-01T14:33:48;35.00;68.70
44559;DHT22;30270;40.238;18.256;2022-07-01T14:36:16;35.00;68.70
44559;DHT22;30270;40.238;18.256;2022-07-01T14:38:43;35.10;68.30
44559;DHT22;30270;40.238;18.256;2022-07-01T14:41:11;35.00;68.20
44559;DHT22;30270;40.238;18.256;2022-07-01T14:43:38;34.90;68.20
44559;DHT22;30270;40.238;18.256;2022-07-01T14:46:06;34.90;68.40
44559;DHT22;30270;40.238;18.256;2022-07-01T14:48:36;35.00;68.70
44559;DHT22;30270;40.238;18.256;2022-07-01T14:51:06;35.00;68.30
44559;DHT22;30270;40.238;18.256;2022-07-01T14:53:33;34.90;68.10
44559;DHT22;30270;40.238;18.256;2022-07-01T14:56:01;34.90;68.40
44559;DHT22;30270;40.238;18.256;2022-07-01T14:58:28;34.80;68.10
44559;DHT22;30270;40.238;18.256;2022-07-01T15:00:56;34.80;68.10
44559;DHT22;30270;40.238;18.256;2022-07-01T15:03:23;34.80;68.20
44559;DHT22;30270;40.238;18.256;2022-07-01T15:05:51;34.80;68.40
44559;DHT22;30270;40.238;18.256;2022-07-01T15:08:20;34.80;68.40
44559;DHT22;30270;40.238;18.256;2022-07-01T15:10:48;34.80;68.00
44559;DHT22;30270;40.238;18.256;2022-07-01T15:13:16;34.80;68.30
44559;DHT22;30270;40.238;18.256;2022-07-01T15:15:43;34.70;68.10
44559;DHT22;30270;40.238;18.256;2022-07-01T15:18:11;34.70;68.10
44559;DHT22;30270;40.238;18.256;2022-07-01T15:20:38;34.70;68.10
44559;DHT22;30270;40.238;18.256;2022-07-01T15:23:06;34.50;68.00
44559;DHT22;30270;40.238;18.256;2022-07-01T15:25:33;34.50;68.30
44559;DHT22;30270;40.238;18.256;2022-07-01T15:28:01;34.40;68.30
44559;DHT22;30270;40.238;18.256;2022-07-01T15:30:28;34.30;69.90
44559;DHT22;30270;40.238;18.256;2022-07-01T15:32:56;34.20;70.70
44559;DHT22;30270;40.238;18.256;2022-07-01T15:35:24;34.10;70.80
44559;DHT22;30270;40.238;18.256;2022-07-01T15:37:52;34.10;70.80
44559;DHT22;30270;40.238;18.256;2022-07-01T15:40:19;34.10;70.80
44559;DHT22;30270;40.238;18.256;2022-07-01T15:42:46;33.90;70.50
44559;DHT22;30270;40.238;18.256;2022-07-01T15:45:14;33.90;70.90
44559;DHT22;30270;40.238;18.256;2022-07-01T15:47:41;33.80;70.80
44559;DHT22;30270;40.238;18.256;2022-07-01T15:50:27;33.70;70.80
44559;DHT22;30270;40.238;18.256;2022-07-01T15:52:55;33.60;70.40
44559;DHT22;30270;40.238;18.256;2022-07-01T15:55:22;33.60;70.70
44559;DHT22;30270;40.238;18.256;2022-07-01T15:57:50;33.70;70.40
44559;DHT22;30270;40.238;18.256;2022-07-01T16:00:21;33.70;70.10
44559;DHT22;30270;40.238;18.256;2022-07-01T16:02:49;33.60;69.00